createdAt,value
2022-12-03T00:03:17.298Z,-10.81
2022-12-03T00:08:22.140Z,-10.90
2022-12-03T00:13:25.475Z,-10.93
2022-12-03T00:18:29.019Z,-11.17
2022-12-03T00:23:37.176Z,-10.81
2022-12-03T00:28:45.027Z,-10.68
2022-12-03T00:33:48.319Z,-10.83
2022-12-03T00:38:53.322Z,-10.82
2022-12-03T00:43:57.975Z,-10.84
2022-12-03T00:49:01.436Z,-11.03
2022-12-03T00:54:06.243Z,-11.04
2022-12-03T00:59:09.822Z,-11.03
2022-12-03T01:04:13.165Z,-11.27
2022-12-03T01:09:18.046Z,-11.30
2022-12-03T01:14:22.209Z,-11.23
2022-12-03T01:19:25.681Z,-11.29
2022-12-03T01:24:30.529Z,-11.32
2022-12-03T01:29:33.831Z,-11.30
2022-12-03T01:34:37.259Z,-11.35
2022-12-03T01:39:42.404Z,-11.40
2022-12-03T01:44:47.201Z,-11.52
2022-12-03T01:49:54.354Z,-11.38
2022-12-03T01:55:01.986Z,-11.40
2022-12-03T02:00:08.725Z,-11.47
2022-12-03T02:05:19.270Z,-11.46
2022-12-03T02:10:27.318Z,-11.54
2022-12-03T02:15:30.830Z,-11.51
2022-12-03T02:20:39.417Z,-11.46
2022-12-03T02:25:44.195Z,-11.47
2022-12-03T02:30:47.807Z,-11.56
2022-12-03T02:35:51.369Z,-11.59
2022-12-03T02:41:00.694Z,-11.80
2022-12-03T02:46:06.807Z,-11.67
2022-12-03T02:51:12.286Z,-11.77
2022-12-03T02:56:20.209Z,-12.03
2022-12-03T03:01:23.874Z,-11.95
2022-12-03T03:06:27.541Z,-11.93
2022-12-03T03:11:32.603Z,-11.81
2022-12-03T03:16:36.475Z,-11.80
2022-12-03T03:21:40.113Z,-11.78
2022-12-03T03:26:45.054Z,-11.89
2022-12-03T03:31:49.329Z,-12.04
2022-12-03T03:36:52.771Z,-11.95
2022-12-03T03:41:57.584Z,-11.93
2022-12-03T03:47:01.783Z,-11.93
2022-12-03T03:52:05.576Z,-11.96
2022-12-03T03:57:10.610Z,-11.74
2022-12-03T04:02:20.976Z,-11.72
2022-12-03T04:07:24.357Z,-11.77
2022-12-03T04:12:46.408Z,-11.90
2022-12-03T04:18:09.984Z,-12.14
2022-12-03T04:23:13.325Z,-12.01
2022-12-03T04:28:35.381Z,-11.92
2022-12-03T04:33:55.936Z,-12.07
2022-12-03T04:38:59.247Z,-12.13
2022-12-03T04:44:21.312Z,-11.90
2022-12-03T04:49:24.830Z,-12.11
2022-12-03T04:54:28.273Z,-12.07
2022-12-03T04:59:33.611Z,-12.13
2022-12-03T05:04:37.270Z,-12.06
2022-12-03T05:09:40.897Z,-12.23
2022-12-03T05:14:45.728Z,-12.32
2022-12-03T05:20:06.261Z,-12.31
2022-12-03T05:25:10.726Z,-12.41
2022-12-03T05:30:16.942Z,-12.49
2022-12-03T05:35:20.452Z,-12.47
2022-12-03T05:40:24.214Z,-12.36
2022-12-03T05:45:30.697Z,-12.29
2022-12-03T05:50:36.362Z,-12.17
2022-12-03T05:55:40.228Z,-12.42
2022-12-03T06:00:45.180Z,-12.26
2022-12-03T06:05:48.589Z,-12.21
2022-12-03T06:10:52.528Z,-12.00
2022-12-03T06:15:57.539Z,-12.09
2022-12-03T06:21:00.991Z,-12.06
2022-12-03T06:26:06.542Z,-12.03
2022-12-03T06:31:11.470Z,-11.80
2022-12-03T06:36:21.521Z,-12.16
2022-12-03T06:41:26.234Z,-11.37
2022-12-03T06:46:31.050Z,-11.57
2022-12-03T06:51:34.458Z,-11.14
2022-12-03T06:56:43.601Z,-10.71
2022-12-03T07:01:50.245Z,-10.48
2022-12-03T07:06:53.827Z,-9.75
2022-12-03T07:11:57.307Z,-8.71
2022-12-03T07:17:02.003Z,-8.62
2022-12-03T07:22:05.988Z,-7.97
2022-12-03T07:27:24.630Z,-7.04
2022-12-03T07:32:29.455Z,-6.83
2022-12-03T07:37:32.792Z,-6.13
2022-12-03T07:42:36.465Z,-5.79
2022-12-03T07:47:41.320Z,-5.08
2022-12-03T07:52:44.760Z,-5.07
2022-12-03T07:57:48.255Z,-4.93
2022-12-03T08:02:52.974Z,-4.44
2022-12-03T08:07:56.660Z,-4.06
2022-12-03T08:13:00.912Z,-3.90
2022-12-03T08:18:09.698Z,-4.25
2022-12-03T08:23:16.605Z,-3.85
2022-12-03T08:28:22.266Z,-4.03
2022-12-03T08:33:29.207Z,-3.95
2022-12-03T08:38:32.813Z,-4.11
2022-12-03T08:43:42.272Z,-4.65
2022-12-03T08:48:49.463Z,-4.95
2022-12-03T08:54:01.047Z,-5.52
2022-12-03T08:59:25.686Z,-5.81
2022-12-03T09:04:37.509Z,-6.14
2022-12-03T09:09:40.986Z,-5.87
2022-12-03T09:14:44.786Z,-5.77
2022-12-03T09:19:49.664Z,-6.30
2022-12-03T09:24:53.195Z,-6.23
2022-12-03T09:29:56.813Z,-5.59
2022-12-03T09:35:01.710Z,-5.91
2022-12-03T09:40:05.663Z,-6.02
2022-12-03T09:45:12.539Z,-6.37
2022-12-03T09:50:20.271Z,-6.27
2022-12-03T09:55:27.180Z,-6.19
2022-12-03T10:00:31.585Z,-6.54
2022-12-03T10:05:36.692Z,-6.54
2022-12-03T10:10:41.985Z,-6.62
2022-12-03T10:15:45.407Z,-6.59
2022-12-03T10:20:51.352Z,-6.40
2022-12-03T10:25:57.296Z,-6.49
2022-12-03T10:31:02.121Z,-6.77
2022-12-03T10:36:25.377Z,-6.61
2022-12-03T10:41:30.010Z,-6.63
2022-12-03T10:46:33.648Z,-6.50
2022-12-03T10:51:39.569Z,-6.57
2022-12-03T10:56:42.910Z,-6.46
2022-12-03T11:01:46.992Z,-6.75
2022-12-03T11:06:52.178Z,-6.59
2022-12-03T11:11:56.182Z,-6.64
2022-12-03T11:17:10.058Z,-6.74
2022-12-03T11:22:42.742Z,-7.09
2022-12-03T11:28:06.482Z,-6.46
2022-12-03T11:33:25.759Z,-6.66
2022-12-03T11:38:53.367Z,-6.71
2022-12-03T11:44:20.392Z,-6.44
2022-12-03T11:49:48.251Z,-6.40
2022-12-03T11:54:56.187Z,-6.53
2022-12-03T12:00:06.842Z,-6.80
2022-12-03T12:05:21.885Z,-6.58
2022-12-03T12:10:44.671Z,-6.45
2022-12-03T12:15:48.190Z,-6.57
2022-12-03T12:20:51.699Z,-6.65
2022-12-03T12:26:07.388Z,-6.50
2022-12-03T12:31:12.593Z,-6.55
2022-12-03T12:36:16.116Z,-6.79
2022-12-03T12:41:20.980Z,-6.67
2022-12-03T12:46:47.420Z,-6.76
2022-12-03T12:51:49.467Z,-6.81
2022-12-03T12:56:54.195Z,-6.86
2022-12-03T13:01:57.393Z,-6.73
2022-12-03T13:07:01.257Z,-6.68
2022-12-03T13:12:07.760Z,-6.89
2022-12-03T13:17:16.814Z,-6.79
2022-12-03T13:22:22.279Z,-6.74
2022-12-03T13:27:30.754Z,-6.92
2022-12-03T13:32:37.379Z,-6.70
2022-12-03T13:37:40.926Z,-6.67
2022-12-03T13:42:46.712Z,-6.69
2022-12-03T13:47:54.548Z,-6.57
2022-12-03T13:52:59.330Z,-6.43
2022-12-03T13:58:04.238Z,-6.41
2022-12-03T14:03:07.766Z,-6.65
2022-12-03T14:08:11.180Z,-6.43
2022-12-03T14:13:16.060Z,-6.43
2022-12-03T14:18:19.445Z,-6.32
2022-12-03T14:23:22.946Z,-6.29
2022-12-03T14:28:27.846Z,-6.16
2022-12-03T14:33:31.187Z,-6.04
2022-12-03T14:38:34.810Z,-5.93
2022-12-03T14:43:39.722Z,-5.92
2022-12-03T14:48:43.083Z,-5.75
2022-12-03T14:53:46.522Z,-5.65
2022-12-03T14:58:51.231Z,-5.59
2022-12-03T15:03:54.378Z,-5.83
2022-12-03T15:08:57.717Z,-5.87
2022-12-03T15:14:02.586Z,-5.98
2022-12-03T15:19:05.874Z,-6.10
2022-12-03T15:24:10.671Z,-6.03
2022-12-03T15:29:15.488Z,-5.91
2022-12-03T15:34:22.898Z,-5.90
2022-12-03T15:39:26.607Z,-5.67
2022-12-03T15:44:31.538Z,-5.56
2022-12-03T15:49:34.904Z,-5.62
2022-12-03T15:54:38.242Z,-5.71
2022-12-03T15:59:43.484Z,-5.62
2022-12-03T16:04:46.912Z,-5.75
2022-12-03T16:09:50.615Z,-6.08
2022-12-03T16:14:55.665Z,-5.98
2022-12-03T16:19:59.125Z,-6.12
2022-12-03T16:25:03.479Z,-6.01
2022-12-03T16:30:10.214Z,-6.00
2022-12-03T16:35:13.691Z,-6.01
2022-12-03T16:40:17.080Z,-6.09
2022-12-03T16:45:51.143Z,-6.20
2022-12-03T16:50:54.924Z,-6.34
2022-12-03T16:55:58.401Z,-6.46
2022-12-03T17:01:03.296Z,-6.32
2022-12-03T17:06:07.235Z,-6.11
2022-12-03T17:11:10.759Z,-5.99
2022-12-03T17:16:15.740Z,-6.23
2022-12-03T17:21:19.240Z,-6.25
2022-12-03T17:26:22.710Z,-6.11
2022-12-03T17:31:27.705Z,-6.07
2022-12-03T17:36:31.240Z,-6.29
2022-12-03T17:41:34.980Z,-6.23
2022-12-03T17:46:40.405Z,-6.48
2022-12-03T17:51:43.878Z,-6.81
2022-12-03T17:56:47.343Z,-6.51
2022-12-03T18:01:52.246Z,-6.73
2022-12-03T18:07:00.649Z,-6.57
2022-12-03T18:12:06.127Z,-6.77
2022-12-03T18:17:11.373Z,-6.76
2022-12-03T18:22:15.030Z,-6.55
2022-12-03T18:27:19.500Z,-6.60
2022-12-03T18:32:31.501Z,-6.23
2022-12-03T18:37:35.279Z,-6.15
2022-12-03T18:42:38.629Z,-6.10
2022-12-03T18:47:44.521Z,-6.19
2022-12-03T18:52:47.977Z,-6.33
2022-12-03T18:57:52.067Z,-6.69
2022-12-03T19:03:04.631Z,-6.64
2022-12-03T19:08:14.869Z,-6.52
2022-12-03T19:13:18.530Z,-6.56
2022-12-03T19:18:23.816Z,-6.58
2022-12-03T19:23:27.207Z,-6.76
2022-12-03T19:28:31.155Z,-6.95
2022-12-03T19:33:36.425Z,-6.90
2022-12-03T19:38:39.930Z,-7.00
2022-12-03T19:43:43.295Z,-6.76
2022-12-03T19:48:48.724Z,-6.84
2022-12-03T19:53:52.182Z,-6.81
2022-12-03T19:58:56.645Z,-6.86
2022-12-03T20:04:03.637Z,-6.93
2022-12-03T20:09:09.454Z,-6.90
2022-12-03T20:14:16.060Z,-7.01
2022-12-03T20:19:20.819Z,-6.84
2022-12-03T20:24:24.259Z,-6.92
2022-12-03T20:29:27.542Z,-6.98
2022-12-03T20:34:34.216Z,-6.86
2022-12-03T20:39:37.638Z,-6.77
2022-12-03T20:44:41.219Z,-6.96
2022-12-03T20:49:46.472Z,-6.87
2022-12-03T20:54:49.892Z,-6.97
2022-12-03T20:59:55.529Z,-6.76
2022-12-03T21:05:00.570Z,-6.82
2022-12-03T21:10:04.416Z,-6.73
2022-12-03T21:15:08.718Z,-6.73
2022-12-03T21:20:16.697Z,-6.64
2022-12-03T21:25:24.086Z,-6.78
2022-12-03T21:30:28.980Z,-6.77
2022-12-03T21:35:34.126Z,-6.79
2022-12-03T21:40:37.569Z,-6.60
2022-12-03T21:45:41.528Z,-6.87
2022-12-03T21:50:47.389Z,-6.91
2022-12-03T21:55:50.950Z,-6.85
2022-12-03T22:00:54.358Z,-6.90
2022-12-03T22:05:59.131Z,-6.84
2022-12-03T22:11:06.538Z,-6.91
2022-12-03T22:16:11.680Z,-6.95
2022-12-03T22:21:19.014Z,-6.86
2022-12-03T22:26:22.401Z,-6.98
2022-12-03T22:31:25.912Z,-6.90
2022-12-03T22:36:31.177Z,-6.91
2022-12-03T22:41:34.523Z,-7.00
2022-12-03T22:46:37.921Z,-6.88
2022-12-03T22:51:45.863Z,-6.94
2022-12-03T22:56:49.482Z,-6.87
2022-12-03T23:01:52.978Z,-6.89
2022-12-03T23:06:57.875Z,-6.78
2022-12-03T23:12:01.238Z,-6.95
2022-12-03T23:17:04.981Z,-6.94
2022-12-03T23:22:09.870Z,-6.87
2022-12-03T23:27:13.854Z,-6.79
2022-12-03T23:32:17.590Z,-6.57
2022-12-03T23:37:22.995Z,-6.81
2022-12-03T23:42:26.351Z,-6.84
2022-12-03T23:47:29.847Z,-6.82
2022-12-03T23:52:36.823Z,-6.92
2022-12-03T23:57:40.291Z,-6.73
